Time;durP1;ratioP1;P1;durP2;ratioP2;P2;SDS_P1;SDS_P2;PMS_P1;PMS_P2;Temp;Humidity;BMP_temperature;BMP_pressure;BME280_temperature;BME280_humidity;BME280_pressure;Samples;Min_cycle;Max_cycle;Signal;HPM_P1;HPM_P2
2023/05/15 00:02:06;;;;;;;;;;;;;;;;;;5095901;28;19994;-68
2023/05/15 00:04:31;;;;;;;;;;;;;;;;;;5078004;28;19912;-68
2023/05/15 00:06:57;;;;;;;;;;;;;;;;;;5096204;28;19922;-68
2023/05/15 00:09:23;;;;;;;;;;;;;;;;;;5095753;28;19962;-68
2023/05/15 00:11:50;;;;;;;;;;;;;;;;;;5096206;28;19908;-68
2023/05/15 00:14:15;;;;;;;;;;;;;;;;;;5077772;28;19915;-68
2023/05/15 00:16:41;;;;;;;;;;;;;;;;;;5095754;28;20334;-68
2023/05/15 00:19:07;;;;;;;;;;;;;;;;;;5095925;28;20294;-68
2023/05/15 00:21:33;;;;;;;;;;;;;;;;;;5095899;28;20360;-68
2023/05/15 00:24:00;;;;;;;;;;;;;;;;;;5095593;28;20378;-68
2023/05/15 00:26:25;;;;;;;;;;;;;;;;;;5095768;28;20372;-68
2023/05/15 00:28:51;;;;;;;;;;;;;;;;;;5096013;28;19953;-68
2023/05/15 00:31:17;;;;;;;;;;;;;;;;;;5095272;28;19958;-69
2023/05/15 00:33:43;;;;;;;;;;;;;;;;;;5095721;28;19912;-69
2023/05/15 00:36:09;;;;;;;;;;;;;;;;;;5095544;28;19908;-69
2023/05/15 00:38:35;;;;;;;;;;;;;;;;;;5095574;28;19908;-68
2023/05/15 00:41:01;;;;;;;;;;;;;;;;;;5096027;28;19916;-69
2023/05/15 00:43:27;;;;;;;;;;;;;;;;;;5095086;28;19912;-68
2023/05/15 00:45:53;;;;;;;;;;;;;;;;;;5095621;28;19925;-68
2023/05/15 00:48:21;;;;;;;;;;;;;;;;;;5095500;28;20111;-69
2023/05/15 00:50:47;;;;;;;;;;;;;;;;;;5094906;28;20368;-69
2023/05/15 00:53:13;;;;;;;;;;;;;;;;;;5095345;28;19954;-68
2023/05/15 00:55:39;;;;;;;;;;;;;;;;;;5095835;28;20415;-68
2023/05/15 00:58:05;;;;;;;;;;;;;;;;;;5094737;28;20360;-68
2023/05/15 01:00:31;;;;;;;;;;;;;;;;;;5095196;28;19954;-68
2023/05/15 01:02:57;;;;;;;;;;;;;;;;;;5095033;28;19912;-68
2023/05/15 01:05:23;;;;;;;;;;;;;;;;;;5094611;28;19916;-68
2023/05/15 01:07:49;;;;;;;;;;;;;;;;;;5094388;28;20032;-69
2023/05/15 01:10:15;;;;;;;;;;;;;;;;;;5094690;28;19908;-68
2023/05/15 01:12:41;;;;;;;;;;;;;;;;;;5094732;28;19958;-68
2023/05/15 01:15:07;;;;;;;;;;;;;;;;;;5094899;28;19934;-68
2023/05/15 01:17:33;;;;;;;;;;;;;;;;;;5094842;28;19908;-68
2023/05/15 01:19:59;;;;;;;;;;;;;;;;;;5094545;28;19994;-68
2023/05/15 01:22:25;;;;;;;;;;;;;;;;;;5094976;28;20307;-68
2023/05/15 01:24:51;;;;;;;;;;;;;;;;;;5094493;28;19916;-69
2023/05/15 01:27:17;;;;;;;;;;;;;;;;;;5094200;28;19912;-69
2023/05/15 01:29:43;;;;;;;;;;;;;;;;;;5094566;28;19908;-69
2023/05/15 01:32:09;;;;;;;;;;;;;;;;;;5094486;28;19914;-69
2023/05/15 01:34:35;;;;;;;;;;;;;;;;;;5094115;28;20382;-69
2023/05/15 01:37:01;;;;;;;;;;;;;;;;;;5094479;28;19991;-69
2023/05/15 01:39:27;;;;;;;;;;;;;;;;;;5094218;28;19908;-68
2023/05/15 01:41:53;;;;;;;;;;;;;;;;;;5094308;28;19915;-69
2023/05/15 01:44:19;;;;;;;;;;;;;;;;;;5094053;28;19961;-68
2023/05/15 01:46:45;;;;;;;;;;;;;;;;;;5075777;28;19915;-68
2023/05/15 01:49:11;;;;;;;;;;;;;;;;;;5094266;28;20007;-68
2023/05/15 01:51:37;;;;;;;;;;;;;;;;;;5094453;28;20265;-68
2023/05/15 01:54:03;;;;;;;;;;;;;;;;;;5093760;28;19961;-68
2023/05/15 01:56:29;;;;;;;;;;;;;;;;;;5094280;28;19919;-68
2023/05/15 01:58:55;;;;;;;;;;;;;;;;;;5094358;28;19915;-68
2023/05/15 02:01:20;;;;;;;;;;;;;;;;;;5093626;28;20003;-68
2023/05/15 02:03:46;;;;;;;;;;;;;;;;;;5094020;28;19908;-68
2023/05/15 02:06:12;;;;;;;;;;;;;;;;;;5094114;28;19924;-68
2023/05/15 02:08:38;;;;;;;;;;;;;;;;;;5093530;28;19914;-69
2023/05/15 02:11:04;;;;;;;;;;;;;;;;;;5093944;28;19909;-69
2023/05/15 02:13:30;;;;;;;;;;;;;;;;;;5093774;28;19908;-68
2023/05/15 02:15:57;;;;;;;;;;;;;;;;;;5093400;28;19908;-69
2023/05/15 02:18:23;;;;;;;;;;;;;;;;;;5093804;28;19915;-68
2023/05/15 02:20:48;;;;;;;;;;;;;;;;;;5093477;28;19977;-68
2023/05/15 02:23:14;;;;;;;;;;;;;;;;;;5093465;28;20335;-69
2023/05/15 02:25:40;;;;;;;;;;;;;;;;;;5093627;28;20287;-68
2023/05/15 02:28:06;;;;;;;;;;;;;;;;;;5093730;28;20380;-68
2023/05/15 02:30:32;;;;;;;;;;;;;;;;;;5074991;28;19908;-69
2023/05/15 02:32:58;;;;;;;;;;;;;;;;;;5093497;28;19912;-68
2023/05/15 02:35:24;;;;;;;;;;;;;;;;;;5093617;28;19908;-69
2023/05/15 02:37:50;;;;;;;;;;;;;;;;;;5093097;28;19908;-69
2023/05/15 02:40:16;;;;;;;;;;;;;;;;;;5093456;28;19908;-68
2023/05/15 02:42:42;;;;;;;;;;;;;;;;;;5093509;28;19943;-68
2023/05/15 02:45:08;;;;;;;;;;;;;;;;;;5092726;28;19958;-69
2023/05/15 02:47:34;;;;;;;;;;;;;;;;;;5093416;28;19908;-68
2023/05/15 02:50:00;;;;;;;;;;;;;;;;;;5093076;28;19909;-68
2023/05/15 02:52:26;;;;;;;;;;;;;;;;;;5093359;28;19915;-68
2023/05/15 02:54:52;;;;;;;;;;;;;;;;;;5093268;28;19908;-68
2023/05/15 02:57:18;;;;;;;;;;;;;;;;;;5092935;28;19912;-68
2023/05/15 02:59:44;;;;;;;;;;;;;;;;;;5093312;28;19970;-68
2023/05/15 03:02:10;;;;;;;;;;;;;;;;;;5093607;28;19915;-68
2023/05/15 03:04:35;;;;;;;;;;;;;;;;;;5092778;28;19915;-68
2023/05/15 03:07:01;;;;;;;;;;;;;;;;;;5093296;28;20002;-68
2023/05/15 03:09:27;;;;;;;;;;;;;;;;;;5093270;28;19912;-68
2023/05/15 03:11:53;;;;;;;;;;;;;;;;;;5092859;28;19934;-68
2023/05/15 03:14:19;;;;;;;;;;;;;;;;;;5093443;28;19955;-68
2023/05/15 03:16:45;;;;;;;;;;;;;;;;;;5093055;28;19916;-68
2023/05/15 03:19:11;;;;;;;;;;;;;;;;;;5092775;28;19909;-69
2023/05/15 03:21:37;;;;;;;;;;;;;;;;;;5093404;28;19908;-68
2023/05/15 03:24:03;;;;;;;;;;;;;;;;;;5093041;28;19908;-68
2023/05/15 03:26:29;;;;;;;;;;;;;;;;;;5092617;28;20002;-68
2023/05/15 03:28:55;;;;;;;;;;;;;;;;;;5093047;28;19915;-69
2023/05/15 03:31:21;;;;;;;;;;;;;;;;;;5093482;28;19969;-69
2023/05/15 03:33:48;;;;;;;;;;;;;;;;;;5096526;28;20023;-69
2023/05/15 03:36:14;;;;;;;;;;;;;;;;;;5096849;28;19908;-68
2023/05/15 03:38:42;;;;;;;;;;;;;;;;;;5096767;28;20391;-69
2023/05/15 03:41:08;;;;;;;;;;;;;;;;;;5096410;28;20113;-68
2023/05/15 03:43:34;;;;;;;;;;;;;;;;;;5096623;28;20028;-68
2023/05/15 03:46:00;;;;;;;;;;;;;;;;;;5096340;28;19924;-68
2023/05/15 03:48:26;;;;;;;;;;;;;;;;;;5077993;28;19908;-68
2023/05/15 03:50:52;;;;;;;;;;;;;;;;;;5096523;28;20003;-68
2023/05/15 03:53:18;;;;;;;;;;;;;;;;;;5096139;28;19912;-68
2023/05/15 03:55:44;;;;;;;;;;;;;;;;;;5096408;28;19908;-68
2023/05/15 03:58:10;;;;;;;;;;;;;;;;;;5096302;28;19914;-68
2023/05/15 04:00:36;;;;;;;;;;;;;;;;;;5095959;28;19948;-68
2023/05/15 04:03:01;;;;;;;;;;;;;;;;;;5096277;28;19908;-68
2023/05/15 04:05:27;;;;;;;;;;;;;;;;;;5096223;28;20002;-68
2023/05/15 04:07:53;;;;;;;;;;;;;;;;;;5095778;28;20272;-68
2023/05/15 04:10:19;;;;;;;;;;;;;;;;;;5096132;28;20351;-68
2023/05/15 04:12:46;;;;;;;;;;;;;;;;;;5096100;28;20303;-68
2023/05/15 04:15:12;;;;;;;;;;;;;;;;;;5095918;28;20008;-68
2023/05/15 04:17:38;;;;;;;;;;;;;;;;;;5096060;28;20372;-68
2023/05/15 04:20:05;;;;;;;;;;;;;;;;;;5096111;28;20261;-68
2023/05/15 04:22:31;;;;;;;;;;;;;;;;;;5095492;28;19998;-68
2023/05/15 04:24:57;;;;;;;;;;;;;;;;;;5095785;28;19920;-68
2023/05/15 04:27:23;;;;;;;;;;;;;;;;;;5095782;28;19935;-68
2023/05/15 04:29:49;;;;;;;;;;;;;;;;;;5095364;28;19997;-69
2023/05/15 04:32:14;;;;;;;;;;;;;;;;;;5095710;28;20279;-69
2023/05/15 04:34:41;;;;;;;;;;;;;;;;;;5095624;28;20326;-68
2023/05/15 04:37:07;;;;;;;;;;;;;;;;;;5095211;28;19999;-68
2023/05/15 04:39:33;;;;;;;;;;;;;;;;;;5095955;28;20363;-68
2023/05/15 04:41:59;;;;;;;;;;;;;;;;;;5095510;28;20356;-68
2023/05/15 04:44:25;;;;;;;;;;;;;;;;;;5076649;28;19913;-68
2023/05/15 04:46:51;;;;;;;;;;;;;;;;;;5095542;28;19914;-68
2023/05/15 04:49:17;;;;;;;;;;;;;;;;;;5077219;28;19950;-68
2023/05/15 04:51:43;;;;;;;;;;;;;;;;;;5094913;28;19908;-69
2023/05/15 04:54:09;;;;;;;;;;;;;;;;;;5095215;28;19908;-69
2023/05/15 04:56:35;;;;;;;;;;;;;;;;;;5095293;28;19927;-69
2023/05/15 04:59:01;;;;;;;;;;;;;;;;;;5095139;28;19908;-68
2023/05/15 05:01:27;;;;;;;;;;;;;;;;;;5095101;28;19916;-68
2023/05/15 05:03:53;;;;;;;;;;;;;;;;;;5094608;28;20421;-69
2023/05/15 05:06:19;;;;;;;;;;;;;;;;;;5095443;28;20368;-69
2023/05/15 05:08:45;;;;;;;;;;;;;;;;;;5094812;28;19951;-65
2023/05/15 05:11:10;;;;;;;;;;;;;;;;;;5089595;28;19912;-68
2023/05/15 05:13:36;;;;;;;;;;;;;;;;;;5093998;28;19912;-66
2023/05/15 05:16:02;;;;;;;;;;;;;;;;;;5094468;28;20015;-67
2023/05/15 05:18:28;;;;;;;;;;;;;;;;;;5093746;28;19912;-68
2023/05/15 05:20:54;;;;;;;;;;;;;;;;;;5094222;28;19965;-67
2023/05/15 05:23:20;;;;;;;;;;;;;;;;;;5094587;28;19915;-65
2023/05/15 05:25:46;;;;;;;;;;;;;;;;;;5093029;28;19916;-66
2023/05/15 05:28:12;;;;;;;;;;;;;;;;;;5089385;28;20071;-66
2023/05/15 05:30:38;;;;;;;;;;;;;;;;;;5072026;28;20065;-66
2023/05/15 05:33:05;;;;;;;;;;;;;;;;;;5071227;28;20623;-66
2023/05/15 05:35:31;;;;;;;;;;;;;;;;;;5072077;28;20265;-66
2023/05/15 05:37:57;;;;;;;;;;;;;;;;;;5072378;28;19927;-66
2023/05/15 05:40:23;;;;;;;;;;;;;;;;;;5070287;28;19919;-67
2023/05/15 05:42:49;;;;;;;;;;;;;;;;;;5079871;28;19991;-68
2023/05/15 05:45:15;;;;;;;;;;;;;;;;;;5084784;28;19927;-67
2023/05/15 05:47:41;;;;;;;;;;;;;;;;;;5089733;28;19920;-65
2023/05/15 05:50:07;;;;;;;;;;;;;;;;;;5089623;28;19931;-65
2023/05/15 05:54:36;;;;;;;;;;;;;;;;;;5083945;27;19927;-64
2023/05/15 05:57:02;;;;;;;;;;;;;;;;;;5083464;28;19916;-67
2023/05/15 05:59:28;;;;;;;;;;;;;;;;;;5084143;28;20451;-66
2023/05/15 06:01:54;;;;;;;;;;;;;;;;;;5084418;28;19933;-68
2023/05/15 06:07:39;;;;;;;;;;;;;;;;;;5086440;27;19920;-66
2023/05/15 06:10:06;;;;;;;;;;;;;;;;;;5090104;28;20381;-65
2023/05/15 06:13:40;;;;;;;;;;;;;;;;;;5079346;27;19930;-65
2023/05/15 06:16:07;;;;;;;;;;;;;;;;;;5088239;28;19912;-67
2023/05/15 06:18:33;;;;;;;;;;;;;;;;;;5088408;28;19969;-67
2023/05/15 06:20:59;;;;;;;;;;;;;;;;;;5086882;28;20338;-67
2023/05/15 06:23:55;;;;;;;;;;;;;;;;;;5086100;27;19923;-65
2023/05/15 06:27:09;;;;;;;;;;;;;;;;;;5143977;27;19992;-65
2023/05/15 06:31:23;;;;;;;;;;;;;;;;;;5104630;27;19916;-65
2023/05/15 06:33:48;;;;;;;;;;;;;;;;;;5078916;28;19913;-66
2023/05/15 06:36:14;;;;;;;;;;;;;;;;;;5087348;28;19934;-66
2023/05/15 06:38:40;;;;;;;;;;;;;;;;;;5084901;28;19963;-65
2023/05/15 06:41:06;;;;;;;;;;;;;;;;;;5085488;28;19920;-65
2023/05/15 06:43:32;;;;;;;;;;;;;;;;;;5095853;28;19939;-64
2023/05/15 06:45:58;;;;;;;;;;;;;;;;;;5085488;28;19959;-65
2023/05/15 06:48:24;;;;;;;;;;;;;;;;;;5106583;28;19908;-66
2023/05/15 06:50:50;;;;;;;;;;;;;;;;;;5076728;28;19920;-64
2023/05/15 06:54:48;;;;;;;;;;;;;;;;;;5085946;28;19916;-65
2023/05/15 06:57:14;;;;;;;;;;;;;;;;;;5085180;28;19912;-67
2023/05/15 07:01:37;;;;;;;;;;;;;;;;;;5087054;28;19916;-65
2023/05/15 07:04:03;;;;;;;;;;;;;;;;;;5087614;28;19920;-66
2023/05/15 07:06:30;;;;;;;;;;;;;;;;;;5087497;28;19973;-66
2023/05/15 07:08:56;;;;;;;;;;;;;;;;;;5085992;28;19923;-69
2023/05/15 07:17:34;;;;;;;;;;;;;;;;;;5084232;28;19923;-66
2023/05/15 07:20:00;;;;;;;;;;;;;;;;;;5085614;28;19916;-67
2023/05/15 07:22:27;;;;;;;;;;;;;;;;;;5083806;28;19916;-66
2023/05/15 07:26:25;;;;;;;;;;;;;;;;;;5082574;28;19924;-66
2023/05/15 07:30:46;;;;;;;;;;;;;;;;;;5151616;27;19916;-67
2023/05/15 07:33:12;;;;;;;;;;;;;;;;;;5142819;27;20002;-66
2023/05/15 07:37:34;;;;;;;;;;;;;;;;;;5086394;27;19917;-66
2023/05/15 07:41:23;;;;;;;;;;;;;;;;;;5077592;27;19921;-66
2023/05/15 07:43:49;;;;;;;;;;;;;;;;;;5064997;28;19912;-65
2023/05/15 07:46:15;;;;;;;;;;;;;;;;;;5067262;28;20280;-66
2023/05/15 07:48:41;;;;;;;;;;;;;;;;;;5063683;28;19948;-65
2023/05/15 07:51:07;;;;;;;;;;;;;;;;;;5068375;28;19913;-68
2023/05/15 07:53:33;;;;;;;;;;;;;;;;;;5064514;28;19959;-67
2023/05/15 07:55:59;;;;;;;;;;;;;;;;;;5066059;28;19991;-67
2023/05/15 07:59:40;;;;;;;;;;;;;;;;;;5127375;27;19923;-67
2023/05/15 08:02:06;;;;;;;;;;;;;;;;;;5127153;28;19998;-68
2023/05/15 08:04:32;;;;;;;;;;;;;;;;;;5125459;28;19914;-66
2023/05/15 08:06:58;;;;;;;;;;;;;;;;;;5125746;28;19949;-67
2023/05/15 08:09:24;;;;;;;;;;;;;;;;;;5126562;28;19912;-67
2023/05/15 08:11:50;;;;;;;;;;;;;;;;;;5119299;28;19911;-66
2023/05/15 08:14:16;;;;;;;;;;;;;;;;;;5119701;28;19981;-67
2023/05/15 08:16:42;;;;;;;;;;;;;;;;;;5115783;28;19915;-66
2023/05/15 08:23:41;;;;;;;;;;;;;;;;;;5103727;27;19917;-67
2023/05/15 08:26:42;;;;;;;;;;;;;;;;;;5128400;27;19932;-66
2023/05/15 08:29:08;;;;;;;;;;;;;;;;;;5124278;28;20015;-65
2023/05/15 08:31:35;;;;;;;;;;;;;;;;;;5102339;28;21034;-65
2023/05/15 08:34:01;;;;;;;;;;;;;;;;;;5106449;28;19918;-65
2023/05/15 08:36:26;;;;;;;;;;;;;;;;;;5119492;28;19935;-65
2023/05/15 08:38:52;;;;;;;;;;;;;;;;;;5125776;28;19912;-65
2023/05/15 08:41:18;;;;;;;;;;;;;;;;;;5105589;28;19907;-66
2023/05/15 08:46:16;;;;;;;;;;;;;;;;;;5085880;28;20244;-65
2023/05/15 08:48:42;;;;;;;;;;;;;;;;;;5083434;28;19999;-65
2023/05/15 08:51:08;;;;;;;;;;;;;;;;;;5087248;28;19991;-65
2023/05/15 08:53:34;;;;;;;;;;;;;;;;;;5088139;28;20132;-65
2023/05/15 08:56:00;;;;;;;;;;;;;;;;;;5084963;28;19912;-65
2023/05/15 08:58:27;;;;;;;;;;;;;;;;;;5087836;28;19991;-65
2023/05/15 09:01:37;;;;;;;;;;;;;;;;;;5129246;27;19930;-65
2023/05/15 09:07:04;;;;;;;;;;;;;;;;;;5096761;27;2090032;-65
2023/05/15 09:09:30;;;;;;;;;;;;;;;;;;5155072;27;20038;-65
2023/05/15 09:11:56;;;;;;;;;;;;;;;;;;5150746;27;20389;-65
2023/05/15 09:14:46;;;;;;;;;;;;;;;;;;5162681;27;20006;-65
2023/05/15 09:17:47;;;;;;;;;;;;;;;;;;5085999;27;19921;-65
2023/05/15 09:20:13;;;;;;;;;;;;;;;;;;5081847;28;19955;-66
2023/05/15 09:23:46;;;;;;;;;;;;;;;;;;5106742;27;19920;-65
2023/05/15 09:26:50;;;;;;;;;;;;;;;;;;5086180;28;19921;-65
2023/05/15 09:30:33;;;;;;;;;;;;;;;;;;5156740;27;19915;-65
2023/05/15 09:33:02;;;;;;;;;;;;;;;;;;5150208;27;20011;-65
2023/05/15 09:35:28;;;;;;;;;;;;;;;;;;5144831;27;19907;-65
2023/05/15 09:41:48;;;;;;;;;;;;;;;;;;5145445;27;19915;-64
2023/05/15 09:44:24;;;;;;;;;;;;;;;;;;5081337;27;19922;-65
2023/05/15 09:46:50;;;;;;;;;;;;;;;;;;5085346;28;19912;-64
2023/05/15 09:49:16;;;;;;;;;;;;;;;;;;5091446;28;19912;-66
2023/05/15 09:52:27;;;;;;;;;;;;;;;;;;5086174;27;19946;-65
2023/05/15 09:54:53;;;;;;;;;;;;;;;;;;5085240;28;19913;-66
2023/05/15 09:57:19;;;;;;;;;;;;;;;;;;5085750;28;19978;-65
2023/05/15 09:59:45;;;;;;;;;;;;;;;;;;5086776;28;19951;-65
2023/05/15 10:02:11;;;;;;;;;;;;;;;;;;5087858;28;19970;-64
2023/05/15 10:04:37;;;;;;;;;;;;;;;;;;5088206;28;19924;-65
2023/05/15 10:07:03;;;;;;;;;;;;;;;;;;5087941;28;19916;-65
2023/05/15 10:09:30;;;;;;;;;;;;;;;;;;5088095;28;19986;-65
2023/05/15 10:13:23;;;;;;;;;;;;;;;;;;5121128;27;20450;-66
2023/05/15 10:18:19;;;;;;;;;;;;;;;;;;5089250;28;19912;-65
2023/05/15 10:20:45;;;;;;;;;;;;;;;;;;5067344;28;19916;-64
2023/05/15 10:29:55;;;;;;;;;;;;;;;;;;5096417;27;20280;-66
2023/05/15 10:33:23;;;;;;;;;;;;;;;;;;5121724;27;19916;-65
2023/05/15 10:38:17;;;;;;;;;;;;;;;;;;5088567;28;19920;-65
2023/05/15 10:41:36;;;;;;;;;;;;;;;;;;5089352;27;19931;-66
2023/05/15 10:44:28;;;;;;;;;;;;;;;;;;5094254;27;19920;-65
2023/05/15 10:46:54;;;;;;;;;;;;;;;;;;5087487;28;20357;-66
2023/05/15 10:49:20;;;;;;;;;;;;;;;;;;5089339;28;19963;-66
2023/05/15 10:51:46;;;;;;;;;;;;;;;;;;5089027;28;20372;-66
2023/05/15 10:54:12;;;;;;;;;;;;;;;;;;5088991;28;19919;-67
2023/05/15 10:58:14;;;;;;;;;;;;;;;;;;5136168;27;19922;-65
2023/05/15 11:03:07;;;;;;;;;;;;;;;;;;5150359;27;19915;-65
2023/05/15 11:05:33;;;;;;;;;;;;;;;;;;5141308;27;19950;-66
2023/05/15 11:07:59;;;;;;;;;;;;;;;;;;5125455;28;19943;-65
2023/05/15 11:10:25;;;;;;;;;;;;;;;;;;5123402;28;19916;-65
2023/05/15 11:15:47;;;;;;;;;;;;;;;;;;5085972;27;20512;-69
2023/05/15 11:18:13;;;;;;;;;;;;;;;;;;5086958;28;19913;-67
2023/05/15 11:26:02;;;;;;;;;;;;;;;;;;5086560;27;19920;-66
2023/05/15 11:28:28;;;;;;;;;;;;;;;;;;5085298;28;20352;-65
2023/05/15 11:31:26;;;;;;;;;;;;;;;;;;5084732;27;19919;-65
2023/05/15 11:33:53;;;;;;;;;;;;;;;;;;5085585;28;20011;-65
2023/05/15 11:36:19;;;;;;;;;;;;;;;;;;5087651;28;20007;-66
2023/05/15 11:38:45;;;;;;;;;;;;;;;;;;5095826;28;20010;-65
2023/05/15 11:41:11;;;;;;;;;;;;;;;;;;5090493;28;19912;-66
2023/05/15 11:44:35;;;;;;;;;;;;;;;;;;5116438;27;20023;-65
2023/05/15 11:47:01;;;;;;;;;;;;;;;;;;5109798;28;20346;-66
2023/05/15 11:49:27;;;;;;;;;;;;;;;;;;5110038;28;19912;-67
2023/05/15 11:51:53;;;;;;;;;;;;;;;;;;5109264;28;19991;-66
2023/05/15 11:58:11;;;;;;;;;;;;;;;;;;5087097;28;19916;-66
2023/05/15 12:02:37;;;;;;;;;;;;;;;;;;5068280;28;19917;-66
2023/05/15 12:05:03;;;;;;;;;;;;;;;;;;5068252;28;19919;-65
2023/05/15 12:09:56;;;;;;;;;;;;;;;;;;5087098;27;19920;-65
2023/05/15 12:12:25;;;;;;;;;;;;;;;;;;5087946;28;19916;-65
2023/05/15 12:14:51;;;;;;;;;;;;;;;;;;5087734;28;19966;-66
2023/05/15 12:17:17;;;;;;;;;;;;;;;;;;5086673;28;19947;-67
2023/05/15 12:23:55;;;;;;;;;;;;;;;;;;5089488;28;20012;-66
2023/05/15 12:26:22;;;;;;;;;;;;;;;;;;5090358;28;19913;-66
2023/05/15 12:28:48;;;;;;;;;;;;;;;;;;5079111;28;20300;-67
2023/05/15 12:32:08;;;;;;;;;;;;;;;;;;5146097;27;20006;-66
2023/05/15 12:34:34;;;;;;;;;;;;;;;;;;5132640;27;20006;-64
2023/05/15 12:37:00;;;;;;;;;;;;;;;;;;5151473;27;19907;-64
2023/05/15 12:39:26;;;;;;;;;;;;;;;;;;5151035;27;19915;-64
2023/05/15 12:41:55;;;;;;;;;;;;;;;;;;5149148;27;19947;-65
2023/05/15 12:46:05;;;;;;;;;;;;;;;;;;5089222;27;19924;-65
2023/05/15 12:51:12;;;;;;;;;;;;;;;;;;5160922;27;19915;-64
2023/05/15 12:53:38;;;;;;;;;;;;;;;;;;5150277;27;19911;-65
2023/05/15 12:59:03;;;;;;;;;;;;;;;;;;5139389;27;19912;-65
2023/05/15 13:01:29;;;;;;;;;;;;;;;;;;5127324;28;20018;-67
2023/05/15 13:03:55;;;;;;;;;;;;;;;;;;5127564;28;19936;-69
2023/05/15 13:08:50;;;;;;;;;;;;;;;;;;5089694;28;19916;-69
2023/05/15 13:11:17;;;;;;;;;;;;;;;;;;5090425;28;20350;-70
2023/05/15 13:16:07;;;;;;;;;;;;;;;;;;5150065;27;19918;-70
2023/05/15 13:20:57;;;;;;;;;;;;;;;;;;5087335;27;19917;-70
2023/05/15 13:23:23;;;;;;;;;;;;;;;;;;5086606;28;20269;-70
2023/05/15 13:27:31;;;;;;;;;;;;;;;;;;5107422;27;20296;-69
2023/05/15 13:29:57;;;;;;;;;;;;;;;;;;5108168;28;19912;-70
2023/05/15 13:34:36;;;;;;;;;;;;;;;;;;5151627;27;19922;-70
2023/05/15 13:37:43;;;;;;;;;;;;;;;;;;5152310;27;19915;-69
2023/05/15 13:40:09;;;;;;;;;;;;;;;;;;5152529;27;19918;-69
2023/05/15 13:44:14;;;;;;;;;;;;;;;;;;5111164;27;19920;-69
2023/05/15 13:46:39;;;;;;;;;;;;;;;;;;5111576;28;19959;-69
2023/05/15 13:52:57;;;;;;;;;;;;;;;;;;5070317;28;20410;-69
2023/05/15 13:59:57;;;;;;;;;;;;;;;;;;5110853;27;19912;-69
2023/05/15 14:03:49;;;;;;;;;;;;;;;;;;5132192;27;19912;-69
2023/05/15 14:06:15;;;;;;;;;;;;;;;;;;5131321;28;19933;-70
2023/05/15 14:08:41;;;;;;;;;;;;;;;;;;5131692;27;19914;-70
2023/05/15 14:11:07;;;;;;;;;;;;;;;;;;5131636;27;19957;-70
2023/05/15 14:13:33;;;;;;;;;;;;;;;;;;5131223;27;19907;-70
2023/05/15 14:15:59;;;;;;;;;;;;;;;;;;5130259;28;19914;-70
2023/05/15 14:18:25;;;;;;;;;;;;;;;;;;5131515;27;19911;-70
2023/05/15 14:20:51;;;;;;;;;;;;;;;;;;5131053;27;19908;-70
2023/05/15 14:25:02;;;;;;;;;;;;;;;;;;5111799;27;19912;-69
2023/05/15 14:32:30;;;;;;;;;;;;;;;;;;5091616;27;19913;-69
2023/05/15 14:34:58;;;;;;;;;;;;;;;;;;5090890;28;20321;-69
2023/05/15 14:39:44;;;;;;;;;;;;;;;;;;5091645;27;19916;-71
2023/05/15 14:44:14;;;;;;;;;;;;;;;;;;5112080;27;20314;-69
2023/05/15 14:48:55;;;;;;;;;;;;;;;;;;5111472;27;19938;-69
2023/05/15 14:53:40;;;;;;;;;;;;;;;;;;5111941;27;20293;-69
2023/05/15 14:56:06;;;;;;;;;;;;;;;;;;5111149;28;19919;-69
2023/05/15 15:00:27;;;;;;;;;;;;;;;;;;5111741;27;20307;-70
2023/05/15 15:02:53;;;;;;;;;;;;;;;;;;5111334;28;19912;-70
2023/05/15 15:05:19;;;;;;;;;;;;;;;;;;5111568;28;19995;-70
2023/05/15 15:07:45;;;;;;;;;;;;;;;;;;5111954;28;19916;-70
2023/05/15 15:10:11;;;;;;;;;;;;;;;;;;5111116;28;20272;-70
2023/05/15 15:15:53;;;;;;;;;;;;;;;;;;5091416;27;20274;-69
2023/05/15 15:19:12;;;;;;;;;;;;;;;;;;5112411;27;19934;-69
2023/05/15 15:24:05;;;;;;;;;;;;;;;;;;5111389;27;19912;-70
2023/05/15 15:36:15;;;;;;;;;;;;;;;;;;5111684;27;19922;-68
2023/05/15 15:41:38;;;;;;;;;;;;;;;;;;5070961;28;19917;-68
2023/05/15 15:45:08;;;;;;;;;;;;;;;;;;5167249;27;19911;-69
2023/05/15 15:51:42;;;;;;;;;;;;;;;;;;5089801;28;19931;-68
2023/05/15 15:54:08;;;;;;;;;;;;;;;;;;5091181;28;20364;-69
2023/05/15 15:56:34;;;;;;;;;;;;;;;;;;5090801;28;19962;-68
2023/05/15 15:59:00;;;;;;;;;;;;;;;;;;5090799;28;19985;-68
2023/05/15 16:01:39;;;;;;;;;;;;;;;;;;5111466;27;19916;-68
2023/05/15 16:05:51;;;;;;;;;;;;;;;;;;5090629;27;19921;-68
2023/05/15 16:08:48;;;;;;;;;;;;;;;;;;5132196;27;19916;-69
2023/05/15 16:11:15;;;;;;;;;;;;;;;;;;5132269;28;20015;-69
2023/05/15 16:13:41;;;;;;;;;;;;;;;;;;5131416;28;19908;-69
2023/05/15 16:17:14;;;;;;;;;;;;;;;;;;5091947;27;19913;-69
2023/05/15 16:22:51;;;;;;;;;;;;;;;;;;5111797;27;19916;-69
2023/05/15 16:25:17;;;;;;;;;;;;;;;;;;5111514;28;19912;-69
2023/05/15 16:27:43;;;;;;;;;;;;;;;;;;5111288;28;20352;-69
2023/05/15 16:30:30;;;;;;;;;;;;;;;;;;5111662;27;20356;-69
2023/05/15 16:34:17;;;;;;;;;;;;;;;;;;5090998;27;19913;-70
2023/05/15 16:36:43;;;;;;;;;;;;;;;;;;5091335;28;20011;-70
2023/05/15 16:39:10;;;;;;;;;;;;;;;;;;5091191;28;19961;-70
2023/05/15 16:41:36;;;;;;;;;;;;;;;;;;5090715;28;19955;-69
2023/05/15 16:44:02;;;;;;;;;;;;;;;;;;5091077;28;19908;-70
2023/05/15 16:46:28;;;;;;;;;;;;;;;;;;5091188;28;19970;-69
2023/05/15 16:50:34;;;;;;;;;;;;;;;;;;5091783;28;19923;-69
2023/05/15 16:53:00;;;;;;;;;;;;;;;;;;5091190;28;19912;-69
2023/05/15 16:55:26;;;;;;;;;;;;;;;;;;5090905;28;19962;-69
2023/05/15 17:02:15;;;;;;;;;;;;;;;;;;5091140;27;20016;-69
2023/05/15 17:04:41;;;;;;;;;;;;;;;;;;5091233;28;19947;-69
2023/05/15 17:08:15;;;;;;;;;;;;;;;;;;5152840;27;19915;-69
2023/05/15 17:17:25;;;;;;;;;;;;;;;;;;5112228;27;19922;-68
2023/05/15 17:24:20;;;;;;;;;;;;;;;;;;5091184;27;19923;-69
2023/05/15 17:26:46;;;;;;;;;;;;;;;;;;5091603;28;20427;-71
2023/05/15 17:29:23;;;;;;;;;;;;;;;;;;5091555;28;19922;-69
2023/05/15 17:31:49;;;;;;;;;;;;;;;;;;5091577;28;20288;-70
2023/05/15 17:35:02;;;;;;;;;;;;;;;;;;5092042;28;19922;-71
2023/05/15 17:39:22;;;;;;;;;;;;;;;;;;5152941;27;19915;-69
2023/05/15 17:43:50;;;;;;;;;;;;;;;;;;5091358;27;19923;-69
2023/05/15 17:46:44;;;;;;;;;;;;;;;;;;5092076;27;19917;-69
2023/05/15 17:49:10;;;;;;;;;;;;;;;;;;5091569;28;20003;-69
2023/05/15 17:51:36;;;;;;;;;;;;;;;;;;5090359;28;19915;-69
2023/05/15 17:54:02;;;;;;;;;;;;;;;;;;5091150;28;19909;-68
2023/05/15 17:56:28;;;;;;;;;;;;;;;;;;5091042;28;20276;-69
2023/05/15 18:01:23;;;;;;;;;;;;;;;;;;5111586;27;20352;-69
2023/05/15 18:03:49;;;;;;;;;;;;;;;;;;5111475;28;19916;-69
2023/05/15 18:06:42;;;;;;;;;;;;;;;;;;5152811;27;19916;-68
2023/05/15 18:09:08;;;;;;;;;;;;;;;;;;5152841;27;20367;-69
2023/05/15 18:11:34;;;;;;;;;;;;;;;;;;5152278;27;19943;-68
2023/05/15 18:14:00;;;;;;;;;;;;;;;;;;5152719;27;20359;-69
2023/05/15 18:16:26;;;;;;;;;;;;;;;;;;5152626;27;19908;-69
2023/05/15 18:25:35;;;;;;;;;;;;;;;;;;5173072;27;20393;-69
2023/05/15 18:28:41;;;;;;;;;;;;;;;;;;5091220;27;19916;-69
2023/05/15 18:31:07;;;;;;;;;;;;;;;;;;5090946;28;20287;-71
2023/05/15 18:35:10;;;;;;;;;;;;;;;;;;5153051;27;20006;-69
2023/05/15 18:37:36;;;;;;;;;;;;;;;;;;5152893;27;19954;-71
2023/05/15 18:40:02;;;;;;;;;;;;;;;;;;5152322;27;19907;-70
2023/05/15 18:43:36;;;;;;;;;;;;;;;;;;5071477;28;19916;-71
2023/05/15 18:48:02;;;;;;;;;;;;;;;;;;5152672;27;20006;-69
2023/05/15 18:52:28;;;;;;;;;;;;;;;;;;5091838;28;19922;-70
2023/05/15 18:54:56;;;;;;;;;;;;;;;;;;5091055;28;19966;-70
2023/05/15 18:57:22;;;;;;;;;;;;;;;;;;5091219;28;20353;-70
2023/05/15 18:59:48;;;;;;;;;;;;;;;;;;5091315;28;19919;-70
2023/05/15 19:02:52;;;;;;;;;;;;;;;;;;5111996;27;19912;-71
2023/05/15 19:05:18;;;;;;;;;;;;;;;;;;5111776;28;20328;-71
2023/05/15 19:07:44;;;;;;;;;;;;;;;;;;5110959;28;20221;-69
2023/05/15 19:15:17;;;;;;;;;;;;;;;;;;5090788;28;20021;-68
2023/05/15 19:17:43;;;;;;;;;;;;;;;;;;5090823;28;19981;-68
2023/05/15 19:22:46;;;;;;;;;;;;;;;;;;5111095;27;19923;-68
2023/05/15 19:25:58;;;;;;;;;;;;;;;;;;5090286;27;19919;-69
2023/05/15 19:29:51;;;;;;;;;;;;;;;;;;5090818;27;19923;-69
2023/05/15 19:32:17;;;;;;;;;;;;;;;;;;5090277;28;19912;-69
2023/05/15 19:34:42;;;;;;;;;;;;;;;;;;5089197;28;19984;-69
2023/05/15 19:37:08;;;;;;;;;;;;;;;;;;5089561;28;19978;-70
2023/05/15 19:39:34;;;;;;;;;;;;;;;;;;5090066;28;19908;-69
2023/05/15 19:42:01;;;;;;;;;;;;;;;;;;5090820;28;19917;-69
2023/05/15 19:46:59;;;;;;;;;;;;;;;;;;5132022;27;19922;-69
2023/05/15 19:52:49;;;;;;;;;;;;;;;;;;5112034;27;20276;-70
2023/05/15 19:55:15;;;;;;;;;;;;;;;;;;5111215;28;20002;-70
2023/05/15 19:57:43;;;;;;;;;;;;;;;;;;5110785;28;19911;-70
2023/05/15 20:02:17;;;;;;;;;;;;;;;;;;5112002;27;19923;-70
2023/05/15 20:04:43;;;;;;;;;;;;;;;;;;5109905;28;20338;-70
2023/05/15 20:08:27;;;;;;;;;;;;;;;;;;5152823;27;19915;-69
2023/05/15 20:11:47;;;;;;;;;;;;;;;;;;5152265;27;19923;-70
2023/05/15 20:14:13;;;;;;;;;;;;;;;;;;5152392;27;19931;-69
2023/05/15 20:18:38;;;;;;;;;;;;;;;;;;5070568;28;19919;-69
2023/05/15 20:23:41;;;;;;;;;;;;;;;;;;5091506;27;20390;-68
2023/05/15 20:28:16;;;;;;;;;;;;;;;;;;5111366;27;19916;-70
2023/05/15 20:31:39;;;;;;;;;;;;;;;;;;5091557;27;19918;-68
2023/05/15 20:34:05;;;;;;;;;;;;;;;;;;5090519;28;19916;-69
2023/05/15 20:36:55;;;;;;;;;;;;;;;;;;5111449;27;19912;-69
2023/05/15 20:39:35;;;;;;;;;;;;;;;;;;5090865;28;19913;-69